Time;durP1;ratioP1;P1;durP2;ratioP2;P2;SDS_P1;SDS_P2;PMS_P1;PMS_P2;Temp;Humidity;BMP_temperature;BMP_pressure;BME280_temperature;BME280_humidity;BME280_pressure;Samples;Min_cycle;Max_cycle;Signal;HPM_P1;HPM_P2
2022/05/29 00:00:54;;;;;;;;;2.00;1.00;;;;;11.94;61.88;101815.94;5051308;28;9827;-66
2022/05/29 00:03:21;;;;;;;;;1.00;1.00;;;;;11.93;61.85;101814.25;5049954;28;9739;-66
2022/05/29 00:05:49;;;;;;;;;1.50;0.00;;;;;11.92;62.16;101816.13;5051025;28;10388;-66
2022/05/29 00:08:27;;;;;;;;;0.00;0.00;;;;;11.90;61.62;101804.66;5051038;28;9826;-66
2022/05/29 00:10:55;;;;;;;;;1.00;1.00;;;;;11.87;61.84;101805.88;5050805;28;9954;-65
2022/05/29 00:13:22;;;;;;;;;0.00;0.00;;;;;11.87;62.24;101810.44;5048940;28;9769;-65
2022/05/29 00:15:48;;;;;;;;;2.00;0.75;;;;;11.89;62.02;101808.38;5049528;28;10390;-64
2022/05/29 00:18:15;;;;;;;;;3.00;1.00;;;;;11.89;61.94;101802.97;5050510;28;9822;-66
2022/05/29 00:20:46;;;;;;;;;1.50;1.50;;;;;11.90;62.15;101809.22;5051001;28;9756;-64
2022/05/29 00:23:12;;;;;;;;;3.25;2.75;;;;;11.87;61.84;101805.88;5051017;28;9738;-64
2022/05/29 00:25:39;;;;;;;;;0.00;0.00;;;;;11.88;62.55;101802.16;5050937;28;9820;-64
2022/05/29 00:28:06;;;;;;;;;1.00;1.00;;;;;11.88;62.49;101804.84;5050478;28;9661;-64
2022/05/29 00:30:32;;;;;;;;;0.00;0.00;;;;;11.90;62.63;101809.22;5050963;28;9858;-65
2022/05/29 00:32:59;;;;;;;;;1.00;1.00;;;;;11.82;62.06;101808.22;5043234;28;9831;-65
2022/05/29 00:35:25;;;;;;;;;1.75;0.25;;;;;11.80;62.49;101804.88;5051095;28;10533;-64
2022/05/29 00:37:51;;;;;;;;;4.00;2.50;;;;;11.80;62.94;101791.38;5050458;28;10521;-65
2022/05/29 00:40:45;;;;;;;;;0.50;0.50;;;;;11.74;62.38;101802.03;5050731;28;9870;-64
2022/05/29 00:43:11;;;;;;;;;1.00;0.75;;;;;11.62;62.81;101799.72;5050557;28;9814;-64
2022/05/29 00:45:56;;;;;;;;;1.25;1.00;;;;;11.61;63.31;101806.16;5050977;28;9846;-64
2022/05/29 00:48:23;;;;;;;;;0.00;0.00;;;;;11.62;62.88;101791.66;5039713;28;9821;-65
2022/05/29 00:50:53;;;;;;;;;2.75;0.00;;;;;11.65;62.77;101798.56;5050740;28;9807;-65
2022/05/29 00:53:21;;;;;;;;;1.00;1.00;;;;;11.69;63.12;101793.66;5050949;28;9802;-65
2022/05/29 00:55:53;;;;;;;;;0.00;0.00;;;;;11.75;62.58;101785.69;5050626;28;9771;-64
2022/05/29 00:58:22;;;;;;;;;2.00;2.00;;;;;11.80;62.47;101791.38;5050569;28;9823;-64
2022/05/29 01:00:49;;;;;;;;;0.00;0.00;;;;;11.73;62.60;101776.91;5050459;28;9831;-64
2022/05/29 01:03:16;;;;;;;;;1.00;1.00;;;;;11.76;62.67;101781.13;5050153;28;10452;-65
2022/05/29 01:05:43;;;;;;;;;0.75;0.75;;;;;11.78;62.81;101779.91;5049992;28;9941;-64
2022/05/29 01:08:13;;;;;;;;;1.00;1.00;;;;;11.80;63.07;101783.28;5049898;28;9830;-64
2022/05/29 01:10:46;;;;;;;;;2.00;0.00;;;;;11.78;62.82;101779.91;5050383;28;9827;-63
2022/05/29 01:13:27;;;;;;;;;1.00;1.00;;;;;11.77;62.87;101775.53;5050333;28;9850;-65
2022/05/29 01:16:04;;;;;;;;;1.25;0.75;;;;;11.80;63.08;101769.78;5050083;28;9746;-63
2022/05/29 01:18:44;;;;;;;;;2.00;1.25;;;;;11.76;62.91;101765.78;5049815;28;9834;-64
2022/05/29 01:21:34;;;;;;;;;1.00;1.00;;;;;11.74;62.85;101761.56;5046787;28;9904;-65
2022/05/29 01:24:01;;;;;;;;;3.00;1.00;;;;;11.66;63.37;101751.69;5045070;28;9811;-64
2022/05/29 01:27:00;;;;;;;;;2.00;2.00;;;;;11.66;63.74;101754.38;5049675;28;9931;-65
2022/05/29 01:29:51;;;;;;;;;1.25;0.75;;;;;11.63;63.64;101752.06;5049705;28;9858;-65
2022/05/29 01:32:29;;;;;;;;;1.00;0.00;;;;;11.55;63.54;101754.81;5049189;28;10428;-65
2022/05/29 01:35:03;;;;;;;;;0.50;0.50;;;;;11.48;63.57;101753.84;5049934;28;9670;-65
2022/05/29 01:37:39;;;;;;;;;0.50;0.50;;;;;11.45;63.48;101748.78;5049526;28;10073;-65
2022/05/29 01:40:22;;;;;;;;;0.25;0.25;;;;;11.44;63.51;101749.81;5049730;28;9816;-64
2022/05/29 01:43:29;;;;;;;;;1.00;1.00;;;;;11.45;63.67;101740.69;5049872;28;9897;-64
2022/05/29 01:46:05;;;;;;;;;1.00;1.00;;;;;11.45;64.34;101748.78;5049952;28;9894;-63
2022/05/29 01:48:56;;;;;;;;;1.00;1.00;;;;;11.50;63.80;101741.00;5050293;28;10804;-64
2022/05/29 01:51:43;;;;;;;;;0.75;0.00;;;;;11.49;64.45;101736.63;5047187;28;10074;-64
2022/05/29 01:54:15;;;;;;;;;1.00;1.00;;;;;11.48;64.53;101727.72;5049952;28;9908;-64
2022/05/29 01:56:57;;;;;;;;;0.75;0.75;;;;;11.52;64.78;101726.34;5049641;28;9994;-64
2022/05/29 01:59:31;;;;;;;;;0.25;0.25;;;;;11.57;64.83;101732.03;5049934;28;10088;-65
2022/05/29 02:02:05;;;;;;;;;1.00;1.00;;;;;11.63;65.06;101736.72;5050004;28;9916;-65
2022/05/29 02:04:37;;;;;;;;;1.00;1.00;;;;;11.69;64.47;101726.22;5047588;28;10683;-65
2022/05/29 02:10:08;;;;;;;;;0.00;0.00;;;;;11.74;64.96;101721.94;5041902;28;9899;-64
2022/05/29 02:12:39;;;;;;;;;0.50;0.00;;;;;11.75;65.11;101715.56;5031740;28;9822;-65
2022/05/29 02:15:14;;;;;;;;;2.25;0.75;;;;;11.76;65.09;101711.00;5046569;28;9814;-65
2022/05/29 02:17:44;;;;;;;;;1.00;1.00;;;;;11.81;64.82;101731.00;5052947;28;9739;-65
2022/05/29 02:20:18;;;;;;;;;1.25;0.25;;;;;11.84;64.88;101724.44;5050593;28;9853;-65
2022/05/29 02:22:49;;;;;;;;;1.00;1.00;;;;;11.81;64.68;101722.91;5051892;28;9729;-65
2022/05/29 02:25:22;;;;;;;;;1.00;1.00;;;;;11.72;65.41;101721.31;5053148;28;9735;-65
2022/05/29 02:27:57;;;;;;;;;0.00;0.00;;;;;11.56;65.08;101722.25;5052886;28;10001;-65
2022/05/29 02:30:34;;;;;;;;;2.25;2.00;;;;;11.38;66.07;101717.16;5052985;28;9806;-65
2022/05/29 02:33:12;;;;;;;;;2.75;1.00;;;;;11.41;67.11;101728.59;5052413;28;9897;-65
2022/05/29 02:35:49;;;;;;;;;1.00;1.00;;;;;11.39;67.22;101721.53;5052721;28;9874;-65
2022/05/29 02:38:32;;;;;;;;;1.00;1.00;;;;;11.36;67.63;101712.97;5052900;28;9803;-65
2022/05/29 02:41:07;;;;;;;;;0.00;0.00;;;;;11.37;68.43;101714.63;5052839;28;9825;-65
2022/05/29 02:43:53;;;;;;;;;1.00;1.00;;;;;11.44;68.66;101712.06;5035224;28;9751;-66
2022/05/29 02:46:44;;;;;;;;;1.75;0.75;;;;;11.52;68.62;101706.63;5045800;28;9950;-64
2022/05/29 02:49:30;;;;;;;;;1.50;0.50;;;;;11.58;68.22;101711.28;5045403;28;9825;-65
2022/05/29 02:52:02;;;;;;;;;3.00;1.75;;;;;11.54;68.29;101708.09;5052804;28;10316;-64
2022/05/29 02:54:31;;;;;;;;;1.25;0.00;;;;;11.51;68.29;101699.56;5052861;28;9986;-64
2022/05/29 02:57:00;;;;;;;;;1.00;1.00;;;;;11.50;68.30;101701.38;5052496;28;9894;-65
2022/05/29 02:59:31;;;;;;;;;5.00;1.00;;;;;11.48;68.08;101708.84;5052684;28;10162;-65
2022/05/29 03:02:24;;;;;;;;;1.00;1.00;;;;;11.51;68.57;101703.09;5053519;28;10050;-65
2022/05/29 03:05:13;;;;;;;;;2.25;1.00;;;;;11.53;68.03;101700.19;5051235;28;9980;-66
2022/05/29 03:08:02;;;;;;;;;1.75;1.00;;;;;11.55;68.10;101698.19;5052310;28;9985;-64
2022/05/29 03:10:35;;;;;;;;;1.00;1.00;;;;;11.58;68.30;101698.63;5052482;28;10030;-63
2022/05/29 03:13:02;;;;;;;;;1.50;1.50;;;;;11.57;68.07;101701.53;5044180;28;9963;-66
2022/05/29 03:15:33;;;;;;;;;1.00;0.75;;;;;11.50;67.54;101701.38;5052369;28;9924;-65
2022/05/29 03:18:10;;;;;;;;;1.00;1.00;;;;;11.46;67.62;101693.84;5052037;28;9981;-62
2022/05/29 03:20:40;;;;;;;;;1.25;0.25;;;;;11.42;67.02;101685.28;5051786;28;9798;-65
2022/05/29 03:23:31;;;;;;;;;0.75;0.00;;;;;11.44;67.11;101694.03;5052301;28;9740;-65
2022/05/29 03:26:06;;;;;;;;;0.75;0.00;;;;;11.45;66.75;101684.91;5051675;28;9922;-65
2022/05/29 03:28:42;;;;;;;;;0.25;0.25;;;;;11.45;66.54;101686.78;5052010;28;9811;-64
2022/05/29 03:31:18;;;;;;;;;0.00;0.00;;;;;11.50;65.74;101681.69;5051827;28;9888;-65
2022/05/29 03:33:48;;;;;;;;;1.00;1.00;;;;;11.52;66.02;101683.19;5050059;28;9840;-65
2022/05/29 03:36:15;;;;;;;;;1.00;1.00;;;;;11.47;65.46;101682.91;5047390;28;9842;-65
2022/05/29 03:38:45;;;;;;;;;0.00;0.00;;;;;11.45;65.67;101681.38;5051619;28;10013;-65
2022/05/29 03:41:16;;;;;;;;;0.25;0.25;;;;;11.47;66.40;101679.38;5050258;28;10626;-65
2022/05/29 03:43:44;;;;;;;;;1.00;1.00;;;;;11.46;65.96;101674.97;5051669;28;9889;-67
2022/05/29 03:46:15;;;;;;;;;0.00;0.00;;;;;11.44;65.86;101679.72;5050435;28;9990;-66
2022/05/29 03:48:42;;;;;;;;;1.00;1.00;;;;;11.36;66.58;101678.75;5051271;28;9828;-66
2022/05/29 03:51:08;;;;;;;;;2.00;1.50;;;;;11.33;66.34;101678.25;5051349;28;9987;-66
2022/05/29 03:53:35;;;;;;;;;0.00;0.00;;;;;11.34;66.31;101674.53;5051258;28;10001;-67
2022/05/29 03:56:03;;;;;;;;;1.00;0.25;;;;;11.35;65.54;101663.59;5051275;28;9990;-67
2022/05/29 03:58:29;;;;;;;;;0.00;0.00;;;;;11.30;66.14;101668.69;5051088;28;9992;-67
2022/05/29 04:00:56;;;;;;;;;1.00;1.00;;;;;11.32;66.63;101663.94;5047238;28;9838;-67
2022/05/29 04:03:22;;;;;;;;;0.75;0.75;;;;;11.36;66.61;101662.56;5033799;28;9888;-67
2022/05/29 04:05:50;;;;;;;;;1.50;1.00;;;;;11.39;66.58;101662.22;5051302;28;10116;-67
2022/05/29 04:13:47;;;;;;;;;1.00;1.00;;;;;11.53;66.50;101663.28;5051404;28;9874;-67
2022/05/29 04:16:14;;;;;;;;;2.00;1.00;;;;;11.58;66.82;101660.88;5050692;28;10006;-65
2022/05/29 04:18:41;;;;;;;;;1.00;1.00;;;;;11.61;66.28;101659.69;5050500;28;9992;-64
2022/05/29 04:21:07;;;;;;;;;1.25;1.25;;;;;11.62;66.57;101656.81;5051458;28;9912;-66
2022/05/29 04:23:34;;;;;;;;;1.00;1.00;;;;;11.65;66.41;101655.63;5050940;28;9973;-65
2022/05/29 04:26:00;;;;;;;;;4.00;1.00;;;;;11.67;66.54;101658.97;5050912;28;10049;-65
2022/05/29 04:28:27;;;;;;;;;1.00;1.00;;;;;11.68;66.60;101657.13;5050780;28;10534;-64
2022/05/29 04:30:53;;;;;;;;;1.00;1.00;;;;;11.67;66.31;101655.41;5050460;28;9896;-65
2022/05/29 04:33:22;;;;;;;;;1.00;1.00;;;;;11.66;66.60;101653.75;5047960;28;9896;-64
2022/05/29 04:35:50;;;;;;;;;1.00;1.00;;;;;11.61;66.75;101652.44;5045977;28;9832;-66
2022/05/29 04:38:18;;;;;;;;;0.00;0.00;;;;;11.63;66.57;101657.66;5050286;28;10761;-67
2022/05/29 04:40:45;;;;;;;;;1.75;1.75;;;;;11.61;66.63;101652.44;5050667;28;9944;-66
2022/05/29 04:43:13;;;;;;;;;2.00;1.25;;;;;11.60;66.62;101658.03;5050859;28;9821;-65
2022/05/29 04:45:43;;;;;;;;;1.00;1.00;;;;;11.59;67.18;101656.34;5050454;28;9993;-66
2022/05/29 04:48:11;;;;;;;;;1.00;1.00;;;;;11.58;66.79;101650.09;5048639;28;9987;-65
2022/05/29 04:50:38;;;;;;;;;2.25;2.00;;;;;11.59;66.37;101651.78;5048849;28;9807;-66
2022/05/29 04:53:05;;;;;;;;;0.00;0.00;;;;;11.57;66.57;101653.81;5050827;28;9916;-65
2022/05/29 04:55:32;;;;;;;;;1.00;1.00;;;;;11.60;66.47;101644.53;5050280;28;9943;-65
2022/05/29 04:58:00;;;;;;;;;0.00;0.00;;;;;11.65;66.34;101642.13;5050308;28;9839;-66
2022/05/29 05:00:26;;;;;;;;;1.00;1.00;;;;;11.70;66.05;101638.88;5050235;28;9904;-66
2022/05/29 05:02:53;;;;;;;;;3.00;1.00;;;;;11.73;66.49;101635.84;5050226;28;10670;-67
2022/05/29 05:05:19;;;;;;;;;1.00;1.00;;;;;11.76;65.92;101640.88;5050610;28;10622;-66
2022/05/29 05:07:46;;;;;;;;;0.50;0.50;;;;;11.79;66.17;101633.25;5057709;28;10663;-66
2022/05/29 05:10:15;;;;;;;;;0.00;0.00;;;;;11.82;65.83;101637.44;5050269;28;10522;-66
2022/05/29 05:12:43;;;;;;;;;2.00;1.50;;;;;11.78;65.66;101630.72;5050084;28;9945;-66
2022/05/29 05:15:12;;;;;;;;;0.25;0.25;;;;;11.77;65.90;101631.75;5050191;28;10075;-66
2022/05/29 05:17:39;;;;;;;;;2.00;1.00;;;;;11.76;65.29;101633.59;5049690;28;10406;-66
2022/05/29 05:20:06;;;;;;;;;0.75;0.75;;;;;11.77;65.44;101629.88;5032176;28;9988;-66
2022/05/29 05:22:33;;;;;;;;;1.00;1.00;;;;;11.79;64.43;101630.56;5046513;28;9814;-65
2022/05/29 05:25:01;;;;;;;;;1.00;1.00;;;;;11.76;64.67;101627.38;5049998;28;9767;-67
2022/05/29 05:27:28;;;;;;;;;0.00;0.00;;;;;11.77;64.75;101637.13;5047463;28;9896;-67
2022/05/29 05:29:54;;;;;;;;;1.00;1.00;;;;;11.74;64.22;101626.72;5049533;28;10550;-67
2022/05/29 05:32:21;;;;;;;;;0.00;0.00;;;;;11.77;64.53;101635.28;5032134;28;10312;-66
2022/05/29 05:34:47;;;;;;;;;1.00;1.00;;;;;11.89;64.34;101635.72;5049848;28;9882;-66
2022/05/29 05:37:14;;;;;;;;;0.50;0.00;;;;;12.04;63.62;101641.97;5050121;28;10425;-66
2022/05/29 05:39:41;;;;;;;;;2.00;1.00;;;;;12.06;62.19;101639.91;5049592;28;9673;-66
2022/05/29 05:42:08;;;;;;;;;2.00;2.00;;;;;11.91;62.15;101649.00;5049139;28;9808;-66
2022/05/29 05:44:34;;;;;;;;;5.00;1.00;;;;;11.79;63.09;101638.66;5049931;28;9973;-66
2022/05/29 05:47:01;;;;;;;;;2.00;2.00;;;;;11.72;62.85;101644.94;5049700;28;10582;-66
2022/05/29 05:49:28;;;;;;;;;1.75;0.75;;;;;11.79;63.42;101645.91;5053001;28;9711;-65
2022/05/29 05:51:58;;;;;;;;;1.00;1.00;;;;;11.79;62.44;101656.69;5053918;28;9654;-66
2022/05/29 05:54:24;;;;;;;;;1.00;1.00;;;;;11.83;62.92;101636.47;5053922;28;9750;-65
2022/05/29 05:56:51;;;;;;;;;1.75;1.25;;;;;11.89;62.62;101641.09;5052077;28;10306;-65
2022/05/29 05:59:18;;;;;;;;;1.50;1.50;;;;;12.13;62.67;101643.56;5054030;28;9856;-65
2022/05/29 06:01:44;;;;;;;;;3.75;0.50;;;;;12.36;62.21;101638.09;5053950;28;10410;-65
2022/05/29 06:04:11;;;;;;;;;1.00;1.00;;;;;12.50;61.54;101643.66;5053823;28;9661;-65
2022/05/29 06:06:38;;;;;;;;;1.00;1.00;;;;;12.48;60.50;101641.16;5053391;28;9660;-65
2022/05/29 06:09:04;;;;;;;;;1.00;1.00;;;;;12.52;60.68;101641.63;5053484;28;9682;-65
2022/05/29 06:11:31;;;;;;;;;0.00;0.00;;;;;12.44;60.52;101639.84;5053347;28;9490;-65
2022/05/29 06:13:57;;;;;;;;;1.75;1.00;;;;;12.38;60.32;101636.03;5018451;28;9641;-65
2022/05/29 06:16:24;;;;;;;;;0.00;0.00;;;;;12.36;60.25;101629.97;5053657;28;10514;-66
2022/05/29 06:18:51;;;;;;;;;1.00;1.00;;;;;12.29;59.22;101623.66;5053013;28;9667;-65
2022/05/29 06:21:18;;;;;;;;;0.00;0.00;;;;;12.26;59.50;101633.97;5053667;28;9683;-67
2022/05/29 06:23:45;;;;;;;;;1.00;1.00;;;;;12.23;59.08;101632.47;5053081;28;9688;-67
2022/05/29 06:26:12;;;;;;;;;0.00;0.00;;;;;12.26;59.05;101634.81;5045185;28;9726;-66
2022/05/29 06:28:39;;;;;;;;;0.00;0.00;;;;;12.23;58.61;101632.47;5046975;28;9608;-66
2022/05/29 06:31:07;;;;;;;;;1.00;0.00;;;;;12.21;58.69;101631.84;5052001;28;9613;-67
2022/05/29 06:33:34;;;;;;;;;0.00;0.00;;;;;12.18;57.47;101632.19;5035131;28;9601;-66
2022/05/29 06:36:10;;;;;;;;;0.00;0.00;;;;;12.20;57.83;101630.16;5052680;28;9742;-66
2022/05/29 06:38:37;;;;;;;;;0.25;0.25;;;;;12.21;57.21;101631.84;5052749;28;9593;-65
2022/05/29 06:41:06;;;;;;;;;0.00;0.00;;;;;12.25;57.17;101625.03;5053093;28;9734;-66
2022/05/29 06:43:33;;;;;;;;;1.00;1.00;;;;;12.18;56.36;101632.19;5053281;28;9743;-65
2022/05/29 06:46:01;;;;;;;;;0.00;0.00;;;;;12.28;56.82;101637.34;5050343;28;9767;-66
2022/05/29 06:48:28;;;;;;;;;1.00;1.00;;;;;12.36;56.66;101631.84;5052767;28;9602;-66
2022/05/29 06:50:54;;;;;;;;;0.00;0.00;;;;;12.34;57.23;101629.31;5035085;28;9587;-66
2022/05/29 06:53:21;;;;;;;;;0.00;0.00;;;;;12.36;57.08;101629.97;5052946;28;9645;-67
2022/05/29 06:55:52;;;;;;;;;0.00;0.00;;;;;12.48;57.56;101633.06;5052833;28;9715;-66
2022/05/29 06:58:19;;;;;;;;;0.00;0.00;;;;;12.51;57.61;101635.34;5052298;28;9631;-67
2022/05/29 07:09:05;;;;;;;;;0.25;0.25;;;;;12.61;58.93;101640.50;5052476;28;9847;-65
2022/05/29 07:11:36;;;;;;;;;0.00;0.00;;;;;12.61;58.75;101626.97;5052781;28;10429;-63
2022/05/29 07:14:05;;;;;;;;;0.00;0.00;;;;;12.54;58.84;101631.44;5052600;28;9513;-65
2022/05/29 07:16:35;;;;;;;;;1.00;1.00;;;;;12.52;59.03;101637.06;5052113;28;9510;-66
2022/05/29 07:19:04;;;;;;;;;0.25;0.25;;;;;12.51;59.66;101631.81;5051343;28;9627;-65
2022/05/29 07:21:36;;;;;;;;;1.00;1.00;;;;;12.55;59.69;101636.66;5029263;28;9674;-66
2022/05/29 07:24:03;;;;;;;;;1.00;1.00;;;;;12.61;60.42;101635.91;5051994;28;9672;-66
2022/05/29 07:26:30;;;;;;;;;2.00;2.00;;;;;12.61;60.37;101643.19;5051927;28;9627;-66
2022/05/29 07:28:56;;;;;;;;;0.75;0.75;;;;;12.47;61.31;101641.31;5051121;28;9730;-65
2022/05/29 07:31:22;;;;;;;;;1.00;0.00;;;;;12.40;61.57;101640.38;5051929;28;9725;-66
2022/05/29 07:33:49;;;;;;;;;0.00;0.00;;;;;12.35;62.03;101644.47;5052200;28;9515;-65
2022/05/29 07:36:17;;;;;;;;;1.00;1.00;;;;;12.34;62.46;101640.13;5052185;28;9649;-66
2022/05/29 07:38:44;;;;;;;;;0.00;0.00;;;;;12.20;62.24;101643.66;5051542;28;9610;-66
2022/05/29 07:43:56;;;;;;;;;0.75;0.75;;;;;12.15;62.66;101634.44;5051759;28;9726;-66
2022/05/29 07:46:22;;;;;;;;;1.00;1.00;;;;;12.19;63.07;101628.47;5051771;28;9678;-66
2022/05/29 07:48:50;;;;;;;;;0.00;0.00;;;;;12.30;62.39;101633.41;5050656;28;9743;-65
2022/05/29 07:51:16;;;;;;;;;1.00;1.00;;;;;12.43;62.43;101630.06;5051790;28;9673;-66
2022/05/29 07:53:44;;;;;;;;;1.00;0.50;;;;;12.50;62.41;101622.88;5051894;28;9709;-66
2022/05/29 07:56:11;;;;;;;;;1.00;1.00;;;;;12.63;62.76;101627.63;5043386;28;9673;-65
2022/05/29 07:58:42;;;;;;;;;0.00;0.00;;;;;12.70;61.98;101628.53;5051440;28;9687;-64
2022/05/29 08:01:08;;;;;;;;;1.50;1.00;;;;;12.76;61.91;101632.34;5051207;28;9511;-65
2022/05/29 08:03:35;;;;;;;;;0.75;0.75;;;;;12.78;61.63;101614.94;5051343;28;9588;-66
2022/05/29 08:06:01;;;;;;;;;0.50;0.50;;;;;12.82;62.01;101616.22;5033064;28;9516;-67
2022/05/29 08:08:29;;;;;;;;;0.00;0.00;;;;;12.82;61.29;101605.41;5050610;28;10306;-66
2022/05/29 08:10:56;;;;;;;;;0.25;0.25;;;;;12.81;61.07;101608.31;5051021;28;9533;-65
2022/05/29 08:13:24;;;;;;;;;0.00;0.00;;;;;12.83;60.76;101612.47;5050595;28;10120;-66
2022/05/29 08:15:51;;;;;;;;;0.50;0.50;;;;;12.80;61.15;101615.59;5051217;28;9518;-66
2022/05/29 08:18:17;;;;;;;;;0.50;0.00;;;;;12.79;60.53;101618.47;5050793;28;9484;-66
2022/05/29 08:20:44;;;;;;;;;0.00;0.00;;;;;12.71;60.24;101621.28;5051227;28;9505;-65
2022/05/29 08:23:18;;;;;;;;;0.00;0.00;;;;;12.69;60.96;101629.56;5052833;28;9595;-66
2022/05/29 08:31:13;;;;;;;;;0.00;0.00;;;;;12.31;64.91;101635.09;5050222;28;9506;-65
2022/05/29 08:33:40;;;;;;;;;0.00;0.00;;;;;12.35;65.16;101636.38;5051254;28;9581;-67
2022/05/29 08:36:14;;;;;;;;;0.00;0.00;;;;;12.43;64.59;101623.81;5050905;28;9534;-65
2022/05/29 08:38:46;;;;;;;;;0.00;0.00;;;;;12.45;64.57;101628.03;5049359;28;10233;-66
2022/05/29 08:41:22;;;;;;;;;0.00;0.00;;;;;12.52;64.20;101628.13;5029309;28;9441;-66
2022/05/29 08:44:01;;;;;;;;;0.00;0.00;;;;;12.56;63.20;101632.94;5050790;28;10495;-66
2022/05/29 08:46:44;;;;;;;;;0.00;0.00;;;;;12.54;62.08;101628.75;5050531;28;9548;-67
2022/05/29 08:49:17;;;;;;;;;0.00;0.00;;;;;12.56;61.96;101622.16;5049940;28;9542;-66
2022/05/29 08:52:08;;;;;;;;;0.00;0.00;;;;;12.65;62.16;101619.34;5050578;28;9526;-66
2022/05/29 08:55:01;;;;;;;;;0.00;0.00;;;;;12.80;61.65;101604.78;5050342;28;9620;-66
2022/05/29 08:57:40;;;;;;;;;1.00;0.00;;;;;12.93;62.20;101614.06;5050079;28;9541;-67
2022/05/29 09:00:18;;;;;;;;;0.00;0.00;;;;;13.05;61.30;101612.53;5050446;28;9383;-67
2022/05/29 09:03:18;;;;;;;;;0.25;0.25;;;;;13.05;61.03;101623.34;5048694;28;9460;-67
2022/05/29 09:05:55;;;;;;;;;0.00;0.00;;;;;12.92;61.62;101636.69;5050105;28;9546;-67
2022/05/29 09:08:50;;;;;;;;;0.25;0.25;;;;;12.75;62.88;101638.78;5049814;28;9446;-67
2022/05/29 09:11:29;;;;;;;;;0.00;0.00;;;;;12.62;63.33;101632.19;5029328;28;9594;-67
2022/05/29 09:14:07;;;;;;;;;0.25;0.25;;;;;12.53;63.89;101635.19;5049922;28;9445;-67
2022/05/29 09:16:41;;;;;;;;;0.25;0.00;;;;;12.48;64.54;101633.06;5048945;28;9591;-67
2022/05/29 09:19:23;;;;;;;;;0.00;0.00;;;;;12.52;64.62;101630.81;5053853;28;9765;-67
2022/05/29 09:21:56;;;;;;;;;0.75;0.00;;;;;12.61;63.78;101630.53;5050056;28;10417;-66
2022/05/29 09:24:38;;;;;;;;;1.25;0.25;;;;;12.74;63.31;101627.13;5049863;28;9507;-67
2022/05/29 09:27:05;;;;;;;;;2.50;0.00;;;;;12.79;63.18;101622.00;5049620;28;9539;-67
2022/05/29 09:29:31;;;;;;;;;1.75;1.00;;;;;12.73;62.71;101611.13;5049535;28;9654;-67
2022/05/29 09:31:58;;;;;;;;;1.00;1.00;;;;;12.69;62.81;101621.47;5072868;23;9748;-67
2022/05/29 09:34:27;;;;;;;;;0.00;0.00;;;;;12.68;62.30;101619.81;5025445;28;9517;-64
2022/05/29 09:37:17;;;;;;;;;3.00;0.00;;;;;12.72;62.09;101604.91;5049362;28;9522;-65
2022/05/29 09:39:49;;;;;;;;;0.00;0.00;;;;;12.92;62.25;101609.66;5040897;28;9542;-65
2022/05/29 09:42:23;;;;;;;;;0.75;0.75;;;;;13.01;61.93;101600.44;5033792;28;9451;-65
2022/05/29 09:45:22;;;;;;;;;0.00;0.00;;;;;13.10;61.95;101604.69;5057994;28;9683;-65
2022/05/29 09:50:57;;;;;;;;;1.00;1.00;;;;;13.15;60.60;101604.09;5047782;28;9463;-65
2022/05/29 09:53:41;;;;;;;;;0.00;0.00;;;;;13.24;60.52;101601.09;5055713;28;9444;-65
2022/05/29 09:56:09;;;;;;;;;0.00;0.00;;;;;13.22;58.75;101600.44;5067973;28;10211;-66
2022/05/29 09:58:52;;;;;;;;;0.00;0.00;;;;;13.20;57.82;101599.78;5067824;28;9366;-65
2022/05/29 10:01:27;;;;;;;;;0.00;0.00;;;;;13.28;57.67;101607.78;5058349;28;9366;-66
2022/05/29 10:03:59;;;;;;;;;0.50;0.50;;;;;13.24;56.51;101605.66;5067648;28;9470;-65
2022/05/29 10:06:42;;;;;;;;;0.67;0.33;;;;;13.20;55.95;101604.34;5053430;28;9371;-67
2022/05/29 10:09:12;;;;;;;;;0.00;0.00;;;;;13.22;55.74;101602.31;5058913;28;9250;-66
2022/05/29 10:11:40;;;;;;;;;0.00;0.00;;;;;13.12;55.36;101594.50;5049843;28;9373;-66
2022/05/29 10:14:25;;;;;;;;;1.00;1.00;;;;;12.95;56.61;101599.31;5052721;28;9312;-66
2022/05/29 10:16:55;;;;;;;;;1.00;1.00;;;;;12.83;57.33;101595.44;5056569;28;9390;-65
2022/05/29 10:19:37;;;;;;;;;0.00;0.00;;;;;12.76;57.05;101598.09;5055526;28;9496;-66
2022/05/29 10:22:32;;;;;;;;;0.50;0.50;;;;;12.82;57.68;101594.59;5041317;28;9353;-66
2022/05/29 10:24:59;;;;;;;;;0.00;0.00;;;;;12.95;57.21;101593.91;5056240;28;9591;-66
2022/05/29 10:27:31;;;;;;;;;0.00;0.00;;;;;13.03;57.20;101596.50;5056378;28;9526;-66
2022/05/29 10:30:10;;;;;;;;;0.00;0.00;;;;;13.03;56.67;101593.78;5052876;28;9447;-64
2022/05/29 10:32:41;;;;;;;;;1.00;1.00;;;;;13.10;56.35;101596.56;5049613;28;9589;-65
2022/05/29 10:35:31;;;;;;;;;0.00;0.00;;;;;13.19;56.49;101587.28;5050319;28;9446;-65
2022/05/29 10:38:14;;;;;;;;;0.00;0.00;;;;;13.28;55.02;101594.28;5051758;28;10304;-65
2022/05/29 10:40:42;;;;;;;;;1.00;0.00;;;;;13.30;54.10;101594.09;5069309;28;10298;-65
2022/05/29 10:43:09;;;;;;;;;1.00;1.00;;;;;13.31;53.88;101593.88;5069370;28;9354;-65
2022/05/29 10:45:45;;;;;;;;;1.00;1.00;;;;;13.37;54.26;101603.13;5056163;28;9390;-65
2022/05/29 10:48:35;;;;;;;;;2.00;0.00;;;;;13.43;54.22;101596.91;5052897;28;9439;-65
2022/05/29 10:51:20;;;;;;;;;2.00;0.00;;;;;13.41;53.00;101596.28;5070065;28;9376;-65
2022/05/29 10:54:12;;;;;;;;;0.00;0.00;;;;;13.43;53.37;101590.66;5071836;28;9520;-65
2022/05/29 10:57:06;;;;;;;;;0.00;0.00;;;;;13.49;53.08;101589.88;5052596;28;9508;-66
2022/05/29 11:00:02;;;;;;;;;0.00;0.00;;;;;13.59;52.18;101587.69;5051988;28;9398;-64
2022/05/29 11:05:54;;;;;;;;;0.00;0.00;;;;;13.65;52.56;101591.47;5071155;28;9377;-64
2022/05/29 11:08:58;;;;;;;;;0.00;0.00;;;;;13.62;51.55;101590.00;5071902;28;10166;-65
2022/05/29 11:11:55;;;;;;;;;0.00;0.00;;;;;13.63;51.69;101588.97;5072226;28;9290;-65
2022/05/29 11:14:43;;;;;;;;;0.00;0.00;;;;;13.82;51.74;101582.88;5085983;28;9299;-65
2022/05/29 11:17:57;;;;;;;;;0.67;0.67;;;;;13.87;51.59;101592.28;5069132;28;9370;-65
2022/05/29 11:20:38;;;;;;;;;0.00;0.00;;;;;13.89;51.72;101587.47;5086027;28;9332;-65
2022/05/29 11:23:17;;;;;;;;;0.00;0.00;;;;;13.85;52.24;101578.91;5070469;28;9381;-65
2022/05/29 11:25:59;;;;;;;;;0.00;0.00;;;;;13.90;52.06;101578.34;5070663;28;9288;-65
2022/05/29 11:28:42;;;;;;;;;1.33;0.33;;;;;13.93;52.21;101570.63;5087045;28;9464;-64
2022/05/29 11:31:34;;;;;;;;;0.00;0.00;;;;;13.94;50.95;101577.75;5070775;28;9284;-65
2022/05/29 11:34:20;;;;;;;;;0.33;0.00;;;;;13.98;51.21;101572.78;5063029;28;9211;-65
2022/05/29 11:36:57;;;;;;;;;0.00;0.00;;;;;14.00;51.46;101570.69;5052208;28;9204;-63
2022/05/29 11:39:51;;;;;;;;;0.00;0.00;;;;;14.01;51.01;101564.25;5057584;28;10071;-65
2022/05/29 11:42:21;;;;;;;;;0.00;0.00;;;;;14.07;50.96;101560.75;5067392;28;9304;-65
2022/05/29 11:44:54;;;;;;;;;0.00;0.00;;;;;14.03;50.68;101571.13;5063254;28;9277;-65
2022/05/29 11:53:38;;;;;;;;;0.00;0.00;;;;;13.57;50.48;101570.81;5071019;28;9224;-66
2022/05/29 11:56:15;;;;;;;;;0.00;0.00;;;;;13.44;50.63;101570.69;5052726;28;9431;-66
2022/05/29 11:59:01;;;;;;;;;0.00;0.00;;;;;13.33;51.47;101567.50;5071499;28;9300;-65
2022/05/29 12:01:36;;;;;;;;;0.00;0.00;;;;;13.39;51.70;101573.16;5050764;28;9365;-66
2022/05/29 12:04:18;;;;;;;;;0.00;0.00;;;;;13.44;51.46;101574.25;5068488;28;9360;-65
2022/05/29 12:06:55;;;;;;;;;0.00;0.00;;;;;13.27;52.27;101572.84;5043434;28;9377;-65
2022/05/29 12:09:28;;;;;;;;;0.00;0.00;;;;;13.31;53.21;101571.44;5056046;28;9434;-65
2022/05/29 12:12:10;;;;;;;;;0.00;0.00;;;;;13.24;54.27;101571.34;5070993;28;9499;-65
2022/05/29 12:15:00;;;;;;;;;0.00;0.00;;;;;13.30;54.38;101580.56;5079253;28;9458;-65
2022/05/29 12:17:35;;;;;;;;;0.00;0.00;;;;;13.39;54.07;101565.06;5059385;28;9455;-66
2022/05/29 12:20:27;;;;;;;;;0.50;0.00;;;;;13.41;54.26;101573.78;5061500;28;9446;-65
2022/05/29 12:23:03;;;;;;;;;0.33;0.00;;;;;13.25;54.01;101586.56;5069492;28;9375;-65
2022/05/29 12:25:37;;;;;;;;;1.00;1.00;;;;;13.21;54.82;101562.78;5063559;28;9443;-65
2022/05/29 12:28:08;;;;;;;;;0.00;0.00;;;;;13.31;54.50;101568.72;5085933;28;9438;-65
2022/05/29 12:30:40;;;;;;;;;0.00;0.00;;;;;13.40;53.65;101564.84;5055500;28;9332;-65
2022/05/29 12:33:16;;;;;;;;;0.00;0.00;;;;;13.49;53.14;101561.00;5049621;28;9425;-65
2022/05/29 12:35:52;;;;;;;;;0.00;0.00;;;;;13.57;53.43;101566.25;5067511;28;9349;-65
2022/05/29 12:38:46;;;;;;;;;1.00;0.00;;;;;13.62;52.43;101568.38;5070063;28;9476;-65